Terminal Aerodrome Forecast
Issued by NWS

Home | Current Version | Previous Version | Text Only | Print | Product List | Glossary Off
Versions: 1 2 3 4 5 6 7 8 9 10 11 12

000
FTUS43 KMPX 160520
TAFRNH
TAF
KRNH 160520Z 1606/1706 13005KT P6SM VCSH BKN150
     FM161300 16004KT P6SM BKN060 OVC120
     FM162200 26006KT P6SM BKN060
     FM170200 30003KT P6SM SCT060=

USA.gov is the U.S. government's official web portal to all federal, state and local government web resources and services.